Time;durP1;ratioP1;P1;durP2;ratioP2;P2;SDS_P1;SDS_P2;PMS_P1;PMS_P2;Temp;Humidity;BMP_temperature;BMP_pressure;BME280_temperature;BME280_humidity;BME280_pressure;Samples;Min_cycle;Max_cycle;Signal;HPM_P1;HPM_P2
2023/04/02 00:00:16;;;;;;;2.95;1.42;;;;;;;7.10;77.96;100524.28;5010037;28;20053;-55
2023/04/02 00:03:03;;;;;;;5.20;1.00;;;;;;;7.10;78.23;100526.84;5021820;28;20046;-55
2023/04/02 00:05:49;;;;;;;2.53;1.27;;;;;;;7.11;77.28;100533.72;5018897;28;20064;-57
2023/04/02 00:08:24;;;;;;;2.45;1.42;;;;;;;7.11;78.17;100538.88;5018301;28;20551;-56
2023/04/02 00:10:54;;;;;;;5.75;1.35;;;;;;;7.09;77.91;100537.97;5017282;28;20049;-57
2023/04/02 00:16:07;;;;;;;4.30;2.35;;;;;;;7.09;77.49;100545.69;5027486;27;20415;-57
2023/04/02 00:18:44;;;;;;;3.67;2.55;;;;;;;7.09;77.68;100547.41;5004086;28;20042;-57
2023/04/02 00:23:55;;;;;;;3.38;1.60;;;;;;;7.07;77.86;100557.69;5043380;28;20444;-61
2023/04/02 00:29:05;;;;;;;3.13;1.17;;;;;;;7.07;78.84;100557.69;5022508;27;20410;-58
2023/04/02 00:31:36;;;;;;;2.42;1.15;;;;;;;7.03;78.47;100561.06;5025674;28;20048;-59
2023/04/02 00:34:10;;;;;;;2.03;1.27;;;;;;;7.03;77.79;100561.06;5022502;28;20057;-61
2023/04/02 00:36:38;;;;;;;2.45;1.23;;;;;;;6.99;79.30;100559.25;5024695;28;20180;-54
2023/04/02 00:39:14;;;;;;;4.45;1.35;;;;;;;6.97;78.30;100560.91;5019764;28;20107;-59
2023/04/02 00:41:45;;;;;;;3.17;1.38;;;;;;;6.97;78.84;100564.38;5014377;28;20049;-57
2023/04/02 00:44:20;;;;;;;2.33;1.33;;;;;;;6.93;78.50;100568.56;5020297;28;20057;-61
2023/04/02 00:46:50;;;;;;;2.88;1.30;;;;;;;6.95;78.25;100568.59;5013052;28;20042;-57
2023/04/02 00:49:29;;;;;;;4.45;2.00;;;;;;;6.90;79.29;100580.53;5033490;28;20050;-59
2023/04/02 00:52:03;;;;;;;3.75;1.60;;;;;;;6.91;78.76;100585.72;5015099;28;20107;-57
2023/04/02 00:54:38;;;;;;;3.38;1.70;;;;;;;6.89;78.41;100594.25;5020070;28;20053;-58
2023/04/02 00:57:15;;;;;;;3.85;1.38;;;;;;;6.86;78.59;100595.03;5015469;28;20064;-54
2023/04/02 00:59:58;;;;;;;2.40;1.30;;;;;;;6.88;78.42;100601.09;5032227;28;20064;-58
2023/04/02 01:02:31;;;;;;;2.67;1.30;;;;;;;6.88;79.52;100603.66;5038511;28;20053;-59
2023/04/02 01:05:02;;;;;;;3.08;1.50;;;;;;;6.88;78.44;100607.94;5037984;28;20103;-54
2023/04/02 01:16:19;;;;;;;4.97;3.35;;;;;;;6.84;79.63;100617.31;5037631;28;20404;-59
2023/04/02 01:24:32;;;;;;;4.68;1.92;;;;;;;6.85;79.66;100621.63;5039338;28;20793;-56
2023/04/02 01:27:07;;;;;;;4.63;2.65;;;;;;;6.85;80.00;100618.19;5017553;28;20045;-57
2023/04/02 01:29:54;;;;;;;5.90;2.53;;;;;;;6.82;79.05;100629.28;5016282;28;20046;-58
2023/04/02 01:32:22;;;;;;;4.82;2.20;;;;;;;6.82;79.77;100640.44;5039748;28;20075;-58
2023/04/02 01:34:51;;;;;;;3.10;1.25;;;;;;;6.81;78.95;100641.28;5039794;28;20060;-58
2023/04/02 01:45:24;;;;;;;5.63;2.42;;;;;;;6.79;78.90;100640.38;5042202;28;20413;-57
2023/04/02 01:47:51;;;;;;;4.97;1.83;;;;;;;6.80;79.97;100646.41;5010816;28;20651;-55
2023/04/02 01:52:57;;;;;;;5.90;1.85;;;;;;;6.80;79.75;100646.41;5007775;28;20422;-59
2023/04/02 01:55:31;;;;;;;5.70;2.25;;;;;;;6.81;79.52;100648.13;5004434;28;20596;-58
2023/04/02 01:58:00;;;;;;;4.80;1.63;;;;;;;6.82;79.21;100652.44;5003328;28;20108;-55
2023/04/02 02:00:29;;;;;;;4.90;2.15;;;;;;;6.80;79.10;100654.97;5002971;28;20046;-56
2023/04/02 02:02:56;;;;;;;4.43;1.73;;;;;;;6.82;80.03;100660.16;5000265;28;20449;-56
2023/04/02 02:05:23;;;;;;;5.18;1.50;;;;;;;6.80;80.05;100656.72;4998876;28;20054;-56
2023/04/02 02:07:51;;;;;;;7.60;2.33;;;;;;;6.80;80.15;100661.84;4996386;28;20054;-59
2023/04/02 02:10:25;;;;;;;4.45;2.35;;;;;;;6.80;79.62;100667.00;4998840;28;20077;-56
2023/04/02 02:12:53;;;;;;;5.25;2.45;;;;;;;6.82;79.63;100670.47;4998163;28;20058;-57
2023/04/02 02:15:22;;;;;;;7.20;2.00;;;;;;;6.84;79.39;100678.22;4999777;28;20058;-61
2023/04/02 02:17:52;;;;;;;8.30;2.50;;;;;;;6.84;80.16;100681.69;4996621;28;20077;-55
2023/04/02 02:20:20;;;;;;;4.95;2.22;;;;;;;6.84;78.69;100679.13;4995999;28;20046;-55
2023/04/02 02:22:50;;;;;;;6.00;2.40;;;;;;;6.84;80.02;100684.25;5000975;28;20537;-59
2023/04/02 02:25:20;;;;;;;5.15;1.58;;;;;;;6.85;79.53;100682.56;4995327;28;20141;-57
2023/04/02 02:28:09;;;;;;;5.63;2.08;;;;;;;6.85;79.30;100686.00;4994289;28;20141;-58
2023/04/02 02:36:00;;;;;;;7.68;3.33;;;;;;;6.89;78.85;100692.09;5036785;28;20422;-60
2023/04/02 02:38:40;;;;;;;5.90;1.88;;;;;;;6.88;79.21;100698.94;5019355;28;20620;-61
2023/04/02 02:41:34;;;;;;;5.55;3.38;;;;;;;6.89;79.02;100697.25;5016725;28;20056;-57
2023/04/02 02:46:48;;;;;;;6.38;3.33;;;;;;;6.89;79.01;100708.41;4983447;27;20421;-58
2023/04/02 02:49:20;;;;;;;5.32;1.88;;;;;;;6.90;79.65;100715.31;4975025;28;20743;-58
2023/04/02 02:54:50;;;;;;;7.72;3.03;;;;;;;6.91;78.83;100722.19;5029843;27;20406;-57
2023/04/02 02:57:25;;;;;;;7.35;2.80;;;;;;;6.91;80.03;100716.16;4994219;28;20116;-59
2023/04/02 02:59:54;;;;;;;6.78;3.38;;;;;;;6.92;78.85;100720.47;4995066;28;20054;-54
2023/04/02 03:02:22;;;;;;;8.95;3.80;;;;;;;6.91;79.73;100717.06;4997576;28;20070;-53
2023/04/02 03:04:51;;;;;;;7.97;2.80;;;;;;;6.90;79.94;100730.78;4996556;28;20054;-55
2023/04/02 03:07:20;;;;;;;8.00;3.35;;;;;;;6.90;79.98;100728.19;4997932;28;20402;-58
2023/04/02 03:10:11;;;;;;;6.70;2.58;;;;;;;6.85;78.69;100734.06;4991071;28;20046;-61
2023/04/02 03:18:07;;;;;;;10.80;3.63;;;;;;;6.85;79.19;100742.66;5030080;28;20922;-58
2023/04/02 03:23:39;;;;;;;10.52;4.28;;;;;;;7.25;77.94;100762.44;4990435;28;20897;-58
2023/04/02 03:29:06;;;;;;;7.05;3.40;;;;;;;6.91;79.31;100770.25;5018020;28;20402;-57
2023/04/02 03:31:38;;;;;;;10.80;3.42;;;;;;;6.88;78.83;100773.63;5031604;28;20056;-59
2023/04/02 03:37:09;;;;;;;11.50;4.05;;;;;;;6.82;80.09;100787.22;5071658;27;20899;-59
2023/04/02 03:39:41;;;;;;;11.55;4.35;;;;;;;6.82;80.25;100794.06;5034270;28;20544;-58
2023/04/02 03:44:51;;;;;;;12.02;3.47;;;;;;;6.75;79.70;100795.63;5059185;27;20391;-56
2023/04/02 03:47:32;;;;;;;7.82;3.15;;;;;;;6.76;79.90;100793.94;4999572;28;20137;-58
2023/04/02 03:50:06;;;;;;;12.95;3.80;;;;;;;6.74;79.57;100800.72;5001736;28;20049;-58
2023/04/02 03:52:35;;;;;;;11.02;4.05;;;;;;;6.75;78.70;100802.50;5014368;28;20053;-51
2023/04/02 03:55:14;;;;;;;10.52;3.38;;;;;;;6.74;78.78;100806.75;5017962;28;20692;-56
2023/04/02 04:00:26;;;;;;;10.45;4.63;;;;;;;6.74;78.78;100817.06;5069502;27;20405;-56
2023/04/02 04:03:01;;;;;;;11.68;6.07;;;;;;;6.74;78.84;100826.47;5019701;28;20045;-60
2023/04/02 04:05:32;;;;;;;13.98;5.32;;;;;;;6.75;79.31;100820.53;4996186;28;20082;-54
2023/04/02 04:08:04;;;;;;;9.35;4.85;;;;;;;6.75;78.20;100828.25;4998208;28;20168;-58
2023/04/02 04:10:33;;;;;;;9.60;4.30;;;;;;;6.73;79.74;100829.91;4997947;28;20058;-57
2023/04/02 04:13:10;;;;;;;10.00;4.32;;;;;;;6.69;78.81;100829.81;5000761;28;20042;-55
2023/04/02 04:21:10;;;;;;;8.82;2.83;;;;;;;6.66;78.59;100837.44;5039153;28;21083;-58
2023/04/02 04:23:39;;;;;;;9.98;3.42;;;;;;;6.66;78.36;100844.31;5003810;28;20065;-60
2023/04/02 04:26:29;;;;;;;8.48;2.38;;;;;;;6.62;78.46;100847.66;5007772;28;20060;-57
2023/04/02 04:29:20;;;;;;;9.73;2.55;;;;;;;6.63;78.66;100851.97;5011138;28;20104;-60
2023/04/02 04:31:49;;;;;;;7.78;3.10;;;;;;;6.61;78.24;100851.91;4987717;28;20514;-56
2023/04/02 04:34:21;;;;;;;8.18;3.03;;;;;;;6.60;79.34;100857.91;5006842;28;20136;-58
2023/04/02 04:36:55;;;;;;;8.13;3.60;;;;;;;6.55;79.38;100864.59;5015877;28;20053;-57
2023/04/02 04:39:33;;;;;;;12.00;2.95;;;;;;;6.58;78.99;100859.53;5012315;28;20042;-58
2023/04/02 04:42:03;;;;;;;9.90;3.17;;;;;;;6.56;78.84;100874.09;5006415;28;20064;-57
2023/04/02 04:44:48;;;;;;;6.28;2.67;;;;;;;6.55;79.19;100869.75;5011630;28;20127;-57
2023/04/02 04:49:57;;;;;;;9.32;4.55;;;;;;;6.53;80.00;100879.16;5017108;28;20401;-59
2023/04/02 04:52:28;;;;;;;11.43;4.65;;;;;;;6.54;78.85;100883.47;4991623;28;20137;-60
2023/04/02 04:54:55;;;;;;;9.48;4.60;;;;;;;6.53;78.26;100889.44;5001105;28;20045;-56
2023/04/02 05:02:49;;;;;;;6.78;2.90;;;;;;;6.51;78.06;100902.28;5059382;28;20399;-58
2023/04/02 05:05:20;;;;;;;7.53;3.05;;;;;;;6.50;78.42;100912.53;5011739;28;20512;-60
2023/04/02 05:07:51;;;;;;;9.75;3.10;;;;;;;6.45;77.96;100908.97;5032669;28;20049;-55
2023/04/02 05:10:30;;;;;;;14.20;4.05;;;;;;;6.45;77.86;100912.38;5018754;28;20049;-57
2023/04/02 05:15:44;;;;;;;15.32;3.88;;;;;;;6.43;78.86;100927.78;5079141;27;20400;-55
2023/04/02 05:26:43;;;;;;;17.77;6.47;;;;;;;6.80;77.74;100939.94;5053218;28;20408;-56
2023/04/02 05:29:21;;;;;;;;;;;;;;;6.46;78.06;100941.56;5005920;28;20581;-57
2023/04/02 05:31:59;;;;;;;17.00;5.40;;;;;;;6.46;78.83;100939.88;5004300;28;19922;-58
2023/04/02 05:34:32;;;;;;;16.05;4.22;;;;;;;6.45;78.69;100942.41;5013087;28;20073;-54
2023/04/02 05:37:00;;;;;;;11.15;4.50;;;;;;;6.42;77.50;100950.91;5009081;28;20045;-57
2023/04/02 05:39:27;;;;;;;14.13;4.55;;;;;;;6.43;77.32;100956.09;5008603;28;20417;-56
2023/04/02 05:42:17;;;;;;;12.63;4.28;;;;;;;6.39;78.43;100964.53;5010977;28;20084;-53
2023/04/02 05:45:05;;;;;;;15.75;3.10;;;;;;;6.40;78.56;100970.56;5006790;28;20973;-60
2023/04/02 05:47:34;;;;;;;7.63;3.20;;;;;;;6.37;78.18;100976.50;5006392;28;20156;-61
2023/04/02 05:52:46;;;;;;;8.40;3.55;;;;;;;6.32;77.89;100985.81;5021524;27;20415;-55
2023/04/02 05:58:02;;;;;;;7.35;1.67;;;;;;;6.28;76.78;100994.22;5069366;27;20411;-52
2023/04/02 06:03:56;;;;;;;6.28;3.08;;;;;;;6.20;77.25;100999.16;5043876;28;20399;-57
2023/04/02 06:06:34;;;;;;;5.60;1.65;;;;;;;6.17;77.37;101007.66;5015850;28;24167;-54
2023/04/02 06:09:10;;;;;;;14.25;3.30;;;;;;;6.19;77.49;101017.13;5016456;28;20057;-58
2023/04/02 06:11:44;;;;;;;8.52;2.85;;;;;;;6.11;75.94;101025.47;5017926;28;20096;-58
2023/04/02 06:14:12;;;;;;;5.28;2.05;;;;;;;6.08;76.38;101038.22;5021361;28;20057;-55
2023/04/02 06:16:41;;;;;;;9.88;3.10;;;;;;;6.12;75.68;101037.50;5019589;28;20092;-56
2023/04/02 06:19:17;;;;;;;6.07;2.80;;;;;;;6.11;77.29;101046.03;5015417;28;20053;-60
2023/04/02 06:21:48;;;;;;;8.60;2.75;;;;;;;6.07;76.98;101044.19;5012653;28;20077;-56
2023/04/02 06:24:20;;;;;;;8.35;2.47;;;;;;;6.09;75.80;101047.72;5012913;28;20072;-57
2023/04/02 06:26:55;;;;;;;8.65;2.13;;;;;;;6.09;75.75;101046.81;5013349;28;20405;-57
2023/04/02 06:29:37;;;;;;;5.53;2.65;;;;;;;6.08;75.12;101043.38;5016768;28;20096;-58
2023/04/02 06:32:05;;;;;;;5.78;3.60;;;;;;;6.10;76.97;101046.88;5010032;28;20516;-59
2023/04/02 06:34:35;;;;;;;7.47;2.78;;;;;;;6.08;76.03;101056.22;5012014;28;20091;-55
2023/04/02 06:37:14;;;;;;;5.60;2.38;;;;;;;6.04;75.73;101051.81;5013304;28;20084;-56
2023/04/02 06:39:41;;;;;;;8.98;2.50;;;;;;;6.05;75.73;101053.59;5016142;28;20456;-56
2023/04/02 06:44:48;;;;;;;9.40;1.52;;;;;;;6.07;75.44;101058.75;5047797;28;20392;-59
2023/04/02 06:52:48;;;;;;;7.30;0.85;;;;;;;6.12;76.39;101078.66;5021098;27;20416;-56
2023/04/02 06:55:29;;;;;;;5.85;1.63;;;;;;;6.12;76.35;101077.78;4995742;28;20144;-58
2023/04/02 06:57:55;;;;;;;6.10;1.65;;;;;;;6.13;75.32;101085.56;4990659;28;20051;-57
2023/04/02 07:00:42;;;;;;;6.90;1.77;;;;;;;6.16;76.15;101077.94;4998165;28;20467;-52
2023/04/02 07:03:27;;;;;;;8.20;1.35;;;;;;;6.15;75.80;101078.75;4999428;28;20051;-56
2023/04/02 07:05:54;;;;;;;6.10;1.60;;;;;;;6.17;75.53;101089.09;5000383;28;20049;-58
2023/04/02 07:08:22;;;;;;;7.85;1.40;;;;;;;6.22;75.33;101092.72;4997843;28;20050;-56
2023/04/02 07:10:49;;;;;;;5.93;2.03;;;;;;;6.21;75.53;101092.66;4994972;28;20758;-56
2023/04/02 07:13:21;;;;;;;8.95;1.23;;;;;;;6.21;75.20;101092.66;5001664;28;20050;-54
2023/04/02 07:15:51;;;;;;;5.65;1.33;;;;;;;6.23;75.72;101106.44;5001110;28;20080;-57
2023/04/02 07:20:57;;;;;;;8.25;1.30;;;;;;;6.23;75.63;101112.47;5056536;27;20399;-60
2023/04/02 07:23:25;;;;;;;5.63;1.83;;;;;;;6.24;75.62;101109.06;5001902;28;20108;-57
2023/04/02 07:25:53;;;;;;;6.40;2.13;;;;;;;6.28;74.73;101120.31;5001517;28;20112;-56
2023/04/02 07:28:20;;;;;;;4.65;1.20;;;;;;;6.29;75.59;101122.06;5002917;28;20042;-53
2023/04/02 07:30:50;;;;;;;4.63;1.42;;;;;;;6.31;74.70;101128.13;5004036;28;20123;-59
2023/04/02 07:33:20;;;;;;;6.15;2.72;;;;;;;6.34;73.49;101135.94;5025962;28;20541;-61
2023/04/02 07:35:47;;;;;;;;;;;;;;;6.29;75.12;101143.50;5004062;28;20062;-59
2023/04/02 07:38:13;;;;;;;5.78;1.15;;;;;;;6.33;74.98;101144.50;5001803;28;19922;-54
2023/04/02 07:40:40;;;;;;;5.22;1.45;;;;;;;6.37;74.99;101141.22;5000819;28;20069;-55
2023/04/02 07:43:07;;;;;;;11.02;1.77;;;;;;;6.38;73.04;101145.53;4999647;28;20056;-57
2023/04/02 07:45:34;;;;;;;7.03;1.33;;;;;;;6.40;73.15;101146.47;5001086;28;20392;-56
2023/04/02 07:50:41;;;;;;;4.07;1.85;;;;;;;6.38;72.76;101158.38;5114845;27;20388;-56
2023/04/02 07:53:26;;;;;;;9.82;2.53;;;;;;;6.41;72.74;101152.47;5042693;28;20126;-60
2023/04/02 07:55:53;;;;;;;6.75;1.80;;;;;;;6.46;73.01;101157.75;5041328;28;20057;-56
2023/04/02 07:58:19;;;;;;;6.15;2.33;;;;;;;6.51;74.18;101158.78;5068081;28;20105;-55
2023/04/02 08:00:46;;;;;;;4.93;2.80;;;;;;;6.59;74.11;101172.78;5081469;28;20048;-58
2023/04/02 08:03:13;;;;;;;6.65;1.88;;;;;;;6.63;72.89;101169.50;5080417;28;20067;-60
2023/04/02 08:05:39;;;;;;;6.10;2.42;;;;;;;6.66;74.27;101174.69;5081577;28;20071;-59
2023/04/02 08:08:06;;;;;;;4.72;1.85;;;;;;;6.68;72.28;101183.38;5080410;28;20044;-58
2023/04/02 08:10:33;;;;;;;10.13;2.97;;;;;;;6.71;72.63;101179.13;5079945;28;20056;-57
2023/04/02 08:12:59;;;;;;;10.35;2.67;;;;;;;6.71;72.84;101186.84;5081936;28;20075;-55
2023/04/02 08:15:26;;;;;;;2.90;1.80;;;;;;;6.74;72.96;101192.09;5080463;28;20052;-51
2023/04/02 08:17:53;;;;;;;5.65;2.22;;;;;;;6.78;71.86;101183.63;5079456;28;20079;-54
2023/04/02 08:20:21;;;;;;;7.68;2.83;;;;;;;6.85;71.63;101182.16;5077701;28;20040;-56
2023/04/02 08:22:49;;;;;;;6.07;1.85;;;;;;;6.91;72.22;101185.78;5079154;28;20044;-52
2023/04/02 08:25:16;;;;;;;4.38;1.73;;;;;;;6.97;71.93;101194.53;5076400;28;20076;-60
2023/04/02 08:27:46;;;;;;;5.05;1.85;;;;;;;6.98;72.00;101201.41;5080111;28;20048;-54
2023/04/02 08:30:13;;;;;;;3.30;2.05;;;;;;;7.04;72.06;101209.34;5075615;28;20508;-60
2023/04/02 08:32:40;;;;;;;2.45;1.58;;;;;;;7.03;71.23;101205.03;5079830;28;20048;-56
2023/04/02 08:35:08;;;;;;;6.90;1.92;;;;;;;7.07;71.87;101205.13;5078230;28;20079;-56
2023/04/02 08:37:36;;;;;;;4.68;2.20;;;;;;;7.10;70.76;101217.28;5077479;28;20055;-58
2023/04/02 08:40:04;;;;;;;2.65;0.88;;;;;;;7.12;71.84;101215.59;5073966;28;20446;-57
2023/04/02 08:42:42;;;;;;;5.50;1.00;;;;;;;7.13;70.98;101217.34;5079899;28;20116;-58
2023/04/02 08:48:22;;;;;;;4.50;3.05;;;;;;;7.19;70.63;101220.09;5033165;28;20893;-58
2023/04/02 08:50:49;;;;;;;6.30;2.50;;;;;;;7.23;70.68;101222.78;5022808;28;20071;-55
2023/04/02 08:53:23;;;;;;;9.60;1.45;;;;;;;7.26;70.11;101223.75;5014280;28;20059;-52
2023/04/02 09:01:06;;;;;;;5.10;1.98;;;;;;;7.49;69.65;101238.16;5045884;27;20414;-60
2023/04/02 09:03:38;;;;;;;5.25;2.53;;;;;;;7.63;69.68;101233.41;5014229;28;20054;-57
2023/04/02 09:06:11;;;;;;;9.23;2.33;;;;;;;7.81;69.06;101240.78;5014802;28;20108;-59
2023/04/02 09:08:43;;;;;;;3.72;2.17;;;;;;;8.21;68.31;101236.69;5017202;28;20069;-56
2023/04/02 09:14:00;;;;;;;3.10;1.10;;;;;;;8.57;67.76;101242.78;5023345;27;20407;-54
2023/04/02 09:16:40;;;;;;;5.68;1.40;;;;;;;8.78;67.50;101248.44;5023131;28;20042;-56
2023/04/02 09:19:15;;;;;;;7.20;0.90;;;;;;;8.88;66.95;101263.31;5021055;28;20042;-56
2023/04/02 09:21:51;;;;;;;2.80;0.80;;;;;;;8.85;65.92;101248.59;5022978;28;20049;-59
2023/04/02 09:24:18;;;;;;;8.00;1.20;;;;;;;8.81;65.29;101264.88;5019191;28;20065;-61
2023/04/02 09:26:45;;;;;;;5.57;1.30;;;;;;;8.79;65.48;101263.09;5013657;28;20053;-59
2023/04/02 09:31:58;;;;;;;8.60;2.67;;;;;;;9.04;63.71;101272.31;5025851;28;20426;-56
2023/04/02 09:34:34;;;;;;;6.57;1.35;;;;;;;8.90;64.85;101274.56;5022983;28;21219;-53
2023/04/02 09:37:24;;;;;;;5.75;2.20;;;;;;;8.89;65.10;101280.56;5021386;28;20108;-59
2023/04/02 09:39:50;;;;;;;2.88;0.60;;;;;;;9.55;66.00;101282.91;5021896;28;20042;-57
2023/04/02 09:42:35;;;;;;;11.02;1.17;;;;;;;9.65;63.97;101283.97;5021608;28;20466;-60
2023/04/02 09:45:23;;;;;;;6.53;1.35;;;;;;;9.64;64.09;101287.41;5018185;28;20140;-57
2023/04/02 09:47:52;;;;;;;8.10;0.85;;;;;;;9.75;64.15;101280.75;5019804;28;20049;-57
2023/04/02 09:52:56;;;;;;;7.20;0.70;;;;;;;10.20;62.57;101283.31;5004441;28;20426;-59
2023/04/02 09:58:11;;;;;;;2.97;0.60;;;;;;;9.94;62.17;101290.59;5027051;28;20400;-57
2023/04/02 10:00:47;;;;;;;5.70;0.80;;;;;;;9.83;62.70;101295.56;5002906;28;20132;-57
2023/04/02 10:03:34;;;;;;;5.75;1.50;;;;;;;9.72;62.53;101290.13;5014084;28;20050;-58
2023/04/02 10:08:43;;;;;;;7.07;2.15;;;;;;;9.62;62.42;101296.84;5075756;27;20767;-61
2023/04/02 10:13:55;;;;;;;3.72;2.17;;;;;;;9.66;62.09;101305.53;5022982;28;20932;-58
2023/04/02 10:16:31;;;;;;;6.03;2.03;;;;;;;9.72;62.48;101306.53;5014524;28;20089;-53
2023/04/02 10:19:12;;;;;;;9.88;2.30;;;;;;;9.79;62.43;101311.84;5010078;28;20137;-58
2023/04/02 10:21:41;;;;;;;4.63;1.95;;;;;;;9.98;61.70;101306.22;5012607;28;20074;-57
2023/04/02 10:24:14;;;;;;;6.15;2.65;;;;;;;10.11;61.38;101309.03;5020090;28;20096;-60
2023/04/02 10:29:44;;;;;;;4.55;0.77;;;;;;;10.14;61.33;101319.47;5033588;27;20409;-59
2023/04/02 10:32:19;;;;;;;6.25;1.10;;;;;;;10.19;61.88;101328.19;5038523;28;20528;-55
2023/04/02 10:40:08;;;;;;;3.92;2.25;;;;;;;11.01;62.29;101340.88;5018010;28;20402;-56
2023/04/02 10:45:32;;;;;;;3.63;0.85;;;;;;;11.75;60.21;101350.59;5044923;28;20399;-56
2023/04/02 10:51:02;;;;;;;2.08;0.65;;;;;;;12.26;59.66;101343.44;5057076;28;20396;-59
2023/04/02 10:53:41;;;;;;;4.40;1.25;;;;;;;12.18;58.08;101350.28;5003115;28;20096;-59
2023/04/02 10:56:11;;;;;;;4.22;1.35;;;;;;;12.05;58.42;101351.84;5015340;28;20053;-58
2023/04/02 10:58:50;;;;;;;6.55;1.25;;;;;;;11.97;57.98;101356.94;5015689;28;20041;-57
2023/04/02 11:01:22;;;;;;;5.38;0.88;;;;;;;11.82;58.20;101363.69;5015592;28;20046;-56
2023/04/02 11:03:54;;;;;;;6.07;0.70;;;;;;;11.78;58.08;101356.69;5011717;28;20046;-56
2023/04/02 11:06:29;;;;;;;12.02;1.05;;;;;;;11.69;57.58;101366.97;5013861;28;20101;-58
2023/04/02 11:09:02;;;;;;;5.22;1.98;;;;;;;11.71;58.35;101365.25;5017137;28;20042;-60
2023/04/02 11:11:35;;;;;;;8.95;1.63;;;;;;;11.74;58.39;101362.72;5017420;28;20077;-54
2023/04/02 11:14:23;;;;;;;5.75;2.05;;;;;;;11.76;58.08;101357.53;5013692;28;20509;-56
2023/04/02 11:16:51;;;;;;;4.30;1.35;;;;;;;11.85;58.68;101360.25;5009953;28;20172;-56
2023/04/02 11:32:30;;;;;;;6.88;1.52;;;;;;;11.93;56.92;101356.00;5055912;28;20428;-58
2023/04/02 11:35:01;;;;;;;5.32;1.05;;;;;;;12.20;58.55;101362.44;5010220;28;20046;-57
2023/04/02 11:42:50;;;;;;;1.98;0.90;;;;;;;12.76;55.04;101379.50;5058652;27;20401;-60
2023/04/02 11:50:39;;;;;;;4.00;0.43;;;;;;;13.19;54.34;101386.78;5060741;27;20387;-61
2023/04/02 11:56:05;;;;;;;9.68;0.90;;;;;;;13.39;53.96;101391.25;5009053;28;20407;-58
2023/04/02 12:09:41;;;;;;;2.33;0.77;;;;;;;13.81;51.46;101402.00;5095136;27;20395;-61
2023/04/02 12:12:34;;;;;;;4.82;1.35;;;;;;;13.67;51.89;101407.09;5059029;28;20052;-54
2023/04/02 12:15:03;;;;;;;3.40;0.75;;;;;;;13.53;53.16;101405.28;5054249;28;20078;-57
2023/04/02 12:17:32;;;;;;;3.70;0.85;;;;;;;13.35;52.40;101417.25;5052867;28;20057;-61
2023/04/02 12:20:08;;;;;;;8.50;0.98;;;;;;;13.21;52.37;101413.69;5014721;28;20041;-56
2023/04/02 12:22:39;;;;;;;3.97;1.80;;;;;;;13.08;52.82;101429.16;5031934;28;20049;-56
2023/04/02 12:28:17;;;;;;;5.32;2.95;;;;;;;13.08;52.16;101431.78;5033649;27;20756;-57
2023/04/02 12:30:46;;;;;;;3.95;2.58;;;;;;;13.08;52.80;101434.38;5000267;28;20046;-57
2023/04/02 12:36:00;;;;;;;6.78;3.08;;;;;;;12.71;52.12;101444.44;5048869;27;20373;-58
2023/04/02 12:38:28;;;;;;;;;;;;;;;12.59;53.35;101440.84;5008649;28;20640;-60
2023/04/02 12:43:36;;;;;;;3.72;0.47;;;;;;;12.89;53.76;101433.34;5022432;28;20408;-57
2023/04/02 12:46:05;;;;;;;2.75;0.82;;;;;;;12.83;52.39;101444.56;5000053;28;20041;-59
2023/04/02 12:48:34;;;;;;;5.95;1.33;;;;;;;12.79;52.57;101442.78;4999981;28;20054;-58
2023/04/02 12:51:02;;;;;;;5.07;1.20;;;;;;;12.85;53.17;101437.66;5000697;28;20062;-56
2023/04/02 12:53:34;;;;;;;4.65;1.77;;;;;;;12.93;52.93;101450.72;4995004;28;20061;-57
2023/04/02 12:56:02;;;;;;;6.32;0.95;;;;;;;13.06;52.78;101451.72;4998874;28;20050;-52
2023/04/02 12:58:34;;;;;;;3.63;1.02;;;;;;;13.15;53.06;101448.34;4996991;28;20050;-56
2023/04/02 13:01:19;;;;;;;4.40;1.80;;;;;;;13.20;51.88;101462.25;4991127;28;20074;-56
2023/04/02 13:06:51;;;;;;;4.00;0.88;;;;;;;13.09;51.62;101451.75;5012485;28;20753;-59
2023/04/02 13:09:42;;;;;;;8.93;1.15;;;;;;;12.94;51.76;101457.66;4982231;28;20089;-60
2023/04/02 13:12:33;;;;;;;3.55;0.70;;;;;;;12.91;52.47;101461.97;4992972;28;20564;-59
2023/04/02 13:15:03;;;;;;;2.03;1.17;;;;;;;12.84;51.99;101456.69;4991971;28;20458;-60
2023/04/02 13:23:33;;;;;;;5.40;2.08;;;;;;;12.44;52.10;101456.25;5021098;27;20888;-56
2023/04/02 13:26:19;;;;;;;4.38;2.30;;;;;;;12.52;52.29;101449.41;5007122;28;20104;-56
2023/04/02 13:29:15;;;;;;;6.10;3.85;;;;;;;12.63;51.95;101454.72;5014617;28;20058;-57
2023/04/02 13:31:42;;;;;;;2.17;1.25;;;;;;;12.62;51.96;101459.91;5012364;28;20108;-59
2023/04/02 13:34:09;;;;;;;2.00;1.60;;;;;;;12.60;51.97;101452.97;5012900;28;20172;-57
2023/04/02 13:36:36;;;;;;;5.05;2.08;;;;;;;12.44;51.50;101446.75;5005502;28;20096;-58
2023/04/02 13:39:03;;;;;;;2.70;0.88;;;;;;;12.34;50.40;101450.06;5013984;28;20445;-55
2023/04/02 13:41:35;;;;;;;6.35;1.48;;;;;;;12.39;51.65;101450.13;5012458;28;20133;-55
2023/04/02 13:44:02;;;;;;;5.05;1.70;;;;;;;12.44;50.83;101462.34;5002509;28;20128;-56
2023/04/02 13:46:32;;;;;;;3.75;1.42;;;;;;;12.62;52.55;101459.91;5009738;28;20081;-58
2023/04/02 13:48:59;;;;;;;2.97;1.70;;;;;;;12.63;51.66;101456.47;5003048;28;20096;-59
2023/04/02 13:51:37;;;;;;;2.70;1.80;;;;;;;12.62;50.28;101449.50;5001427;28;20088;-55
2023/04/02 13:54:12;;;;;;;2.88;2.15;;;;;;;12.71;52.70;101449.63;5004158;28;20058;-59
2023/04/02 13:56:40;;;;;;;6.45;1.98;;;;;;;12.86;51.71;101443.72;5005492;28;20569;-56
2023/04/02 13:59:06;;;;;;;4.10;1.98;;;;;;;12.97;52.22;101442.09;5008167;28;20054;-58
2023/04/02 14:01:33;;;;;;;6.63;1.83;;;;;;;12.99;51.40;101449.91;5009996;28;20048;-58
2023/04/02 14:04:01;;;;;;;2.58;2.08;;;;;;;12.88;50.60;101452.41;5005048;28;20132;-58
2023/04/02 14:12:35;;;;;;;3.15;0.57;;;;;;;12.99;49.90;101455.09;5049922;27;20402;-60
2023/04/02 14:17:56;;;;;;;4.95;0.98;;;;;;;13.00;49.27;101441.25;5064722;27;20380;-54
2023/04/02 14:31:37;;;;;;;3.22;0.73;;;;;;;12.92;49.47;101445.50;5041993;27;20397;-56
2023/04/02 14:37:13;;;;;;;2.97;1.17;;;;;;;12.72;49.43;101448.75;5054115;27;20386;-56
2023/04/02 14:42:24;;;;;;;3.10;2.17;;;;;;;12.60;48.59;101445.16;5109207;27;20394;-59
2023/04/02 14:44:59;;;;;;;4.07;1.98;;;;;;;12.69;49.60;101446.13;5075545;28;20110;-55
2023/04/02 14:47:33;;;;;;;3.92;2.45;;;;;;;12.77;50.77;101448.81;5072089;28;20564;-60
2023/04/02 14:50:10;;;;;;;6.60;1.80;;;;;;;12.66;49.51;101452.16;5079447;28;20044;-58
2023/04/02 14:52:41;;;;;;;3.05;2.40;;;;;;;12.51;49.58;101455.47;5074417;28;20483;-61
2023/04/02 14:55:26;;;;;;;3.65;3.35;;;;;;;12.38;48.73;101458.75;5077148;28;20068;-60
2023/04/02 14:57:54;;;;;;;2.40;0.75;;;;;;;12.40;49.45;101444.06;5068408;28;20389;-55
2023/04/02 15:03:12;;;;;;;4.63;1.30;;;;;;;12.80;48.39;101434.13;5054335;27;20406;-57
2023/04/02 15:06:20;;;;;;;3.65;1.13;;;;;;;12.65;49.19;101449.53;5019875;28;20041;-56
2023/04/02 15:08:54;;;;;;;6.60;1.20;;;;;;;12.70;49.60;101443.53;5018948;28;20073;-58
2023/04/02 15:11:40;;;;;;;4.57;1.40;;;;;;;12.79;50.64;101447.09;5015498;28;20049;-52
2023/04/02 15:16:50;;;;;;;2.50;1.23;;;;;;;12.66;51.20;101441.75;5023373;28;20398;-60
2023/04/02 15:19:18;;;;;;;5.25;1.60;;;;;;;12.51;49.75;101449.38;5019678;28;20081;-57
2023/04/02 15:30:01;;;;;;;3.53;1.70;;;;;;;12.63;50.04;101456.47;5057768;27;20402;-55
2023/04/02 15:32:38;;;;;;;1.83;0.93;;;;;;;12.60;49.79;101458.16;4997634;28;20073;-57
2023/04/02 15:46:41;;;;;;;3.13;1.45;;;;;;;12.20;50.48;101457.69;5032312;28;20753;-57
2023/04/02 16:10:45;;;;;;;3.55;1.23;;;;;;;12.24;50.24;101485.44;5017898;27;20402;-60
2023/04/02 16:15:54;;;;;;;2.97;1.75;;;;;;;12.00;50.25;101475.56;5033259;27;20415;-58
2023/04/02 16:21:22;;;;;;;3.10;0.80;;;;;;;11.72;50.21;101481.19;5057542;27;20394;-54
2023/04/02 16:23:49;;;;;;;3.95;0.60;;;;;;;11.72;51.43;101485.53;5029666;28;20073;-57
2023/04/02 16:29:07;;;;;;;5.40;1.38;;;;;;;11.67;51.44;101482.84;5017175;27;20414;-58
2023/04/02 16:31:45;;;;;;;4.93;1.23;;;;;;;11.65;51.09;101487.16;5001756;28;20054;-59
2023/04/02 17:06:42;;;;;;;3.35;0.90;;;;;;;10.90;52.87;101522.13;5048173;27;20878;-57
2023/04/02 17:09:22;;;;;;;5.60;1.38;;;;;;;10.82;52.25;101515.94;5009239;28;20053;-57
2023/04/02 17:11:55;;;;;;;8.65;1.13;;;;;;;10.85;52.84;101521.19;5017448;28;20073;-55
2023/04/02 17:17:01;;;;;;;1.92;0.88;;;;;;;10.60;52.72;101523.28;5023455;27;20390;-58